Renick, Missouri
Current Conditions -  °F | °C
As of 4:55 AM on Friday 19 Dec 2014 (Local Time) from KVER Reporting Station
Haze Haze  
Wind Chill: 32°   Ceiling: 600
Heat Index: 32°   Visibility: 4mi
Dew Point: 32°   Wind: 3mph
Humidity: 100%   Direction: 60°ENE
Pressure: 30.26"   Gusts: NA
Location:  39.34°N, 92.41°W
Report Text: KVER 191055Z AUTO 06003KT 4SM BR OVC006 00/00 A3026 RMK AO2 T00000000
Loading
Personal Weather Stations






























Interactive Weather Map New forecast layout! Learn more

10-Day Weather Forecast

Advertisements
Track Severe Weather on mobile